sensor_id;sensor_type;location;lat;lon;timestamp;P1;durP1;ratioP1;P2;durP2;ratioP2
15818;SDS011;8010;53.986;12.106;2022-10-17T00:00:05;3.23;;;2.20;;
15818;SDS011;8010;53.986;12.106;2022-10-17T00:02:31;2.43;;;2.20;;
15818;SDS011;8010;53.986;12.106;2022-10-17T00:04:57;5.00;;;2.20;;
15818;SDS011;8010;53.986;12.106;2022-10-17T00:07:22;6.10;;;2.10;;
15818;SDS011;8010;53.986;12.106;2022-10-17T00:09:48;2.07;;;1.87;;
15818;SDS011;8010;53.986;12.106;2022-10-17T00:12:13;4.47;;;2.30;;
15818;SDS011;8010;53.986;12.106;2022-10-17T00:14:39;2.67;;;2.00;;
15818;SDS011;8010;53.986;12.106;2022-10-17T00:17:05;2.90;;;1.87;;
15818;SDS011;8010;53.986;12.106;2022-10-17T00:19:30;5.60;;;2.00;;
15818;SDS011;8010;53.986;12.106;2022-10-17T00:21:56;2.60;;;2.00;;
15818;SDS011;8010;53.986;12.106;2022-10-17T00:24:21;5.13;;;2.00;;
15818;SDS011;8010;53.986;12.106;2022-10-17T00:26:47;2.77;;;1.83;;
15818;SDS011;8010;53.986;12.106;2022-10-17T00:29:12;3.40;;;2.10;;
15818;SDS011;8010;53.986;12.106;2022-10-17T00:31:37;3.27;;;1.90;;
15818;SDS011;8010;53.986;12.106;2022-10-17T00:34:03;1.97;;;1.80;;
15818;SDS011;8010;53.986;12.106;2022-10-17T00:36:28;2.00;;;1.40;;
15818;SDS011;8010;53.986;12.106;2022-10-17T00:38:55;3.00;;;2.03;;
15818;SDS011;8010;53.986;12.106;2022-10-17T00:41:23;4.13;;;1.93;;
15818;SDS011;8010;53.986;12.106;2022-10-17T00:43:59;4.70;;;2.00;;
15818;SDS011;8010;53.986;12.106;2022-10-17T00:46:51;2.20;;;2.00;;
15818;SDS011;8010;53.986;12.106;2022-10-17T00:49:16;3.60;;;1.90;;
15818;SDS011;8010;53.986;12.106;2022-10-17T00:51:46;3.13;;;2.07;;
15818;SDS011;8010;53.986;12.106;2022-10-17T00:54:16;2.07;;;1.83;;
15818;SDS011;8010;53.986;12.106;2022-10-17T00:56:46;3.17;;;1.87;;
15818;SDS011;8010;53.986;12.106;2022-10-17T00:59:12;2.30;;;2.07;;
15818;SDS011;8010;53.986;12.106;2022-10-17T01:01:40;4.27;;;1.77;;
15818;SDS011;8010;53.986;12.106;2022-10-17T01:04:10;3.27;;;1.87;;
15818;SDS011;8010;53.986;12.106;2022-10-17T01:06:35;3.50;;;1.87;;
15818;SDS011;8010;53.986;12.106;2022-10-17T01:09:01;1.87;;;1.63;;
15818;SDS011;8010;53.986;12.106;2022-10-17T01:17:01;2.80;;;2.20;;
15818;SDS011;8010;53.986;12.106;2022-10-17T01:27:48;4.90;;;2.23;;
15818;SDS011;8010;53.986;12.106;2022-10-17T01:30:49;2.10;;;1.90;;
15818;SDS011;8010;53.986;12.106;2022-10-17T01:35:47;2.40;;;2.20;;
15818;SDS011;8010;53.986;12.106;2022-10-17T01:38:22;4.10;;;2.33;;
15818;SDS011;8010;53.986;12.106;2022-10-17T01:40:57;2.73;;;1.97;;
15818;SDS011;8010;53.986;12.106;2022-10-17T01:43:52;4.57;;;2.37;;
15818;SDS011;8010;53.986;12.106;2022-10-17T01:49:17;3.83;;;2.27;;
15818;SDS011;8010;53.986;12.106;2022-10-17T01:51:47;4.03;;;2.70;;
15818;SDS011;8010;53.986;12.106;2022-10-17T01:54:22;3.97;;;2.40;;
15818;SDS011;8010;53.986;12.106;2022-10-17T01:56:53;4.33;;;2.60;;
15818;SDS011;8010;53.986;12.106;2022-10-17T01:59:23;5.50;;;2.60;;
15818;SDS011;8010;53.986;12.106;2022-10-17T02:01:53;6.73;;;2.67;;
15818;SDS011;8010;53.986;12.106;2022-10-17T02:04:21;5.10;;;2.73;;
15818;SDS011;8010;53.986;12.106;2022-10-17T02:06:46;3.60;;;2.60;;
15818;SDS011;8010;53.986;12.106;2022-10-17T02:09:22;3.07;;;2.57;;
15818;SDS011;8010;53.986;12.106;2022-10-17T02:11:51;4.03;;;2.83;;
15818;SDS011;8010;53.986;12.106;2022-10-17T02:14:31;6.03;;;2.47;;
15818;SDS011;8010;53.986;12.106;2022-10-17T02:20:30;3.50;;;3.00;;
15818;SDS011;8010;53.986;12.106;2022-10-17T02:23:17;4.13;;;2.73;;
15818;SDS011;8010;53.986;12.106;2022-10-17T02:25:59;5.97;;;2.60;;
15818;SDS011;8010;53.986;12.106;2022-10-17T02:31:15;3.63;;;3.03;;
15818;SDS011;8010;53.986;12.106;2022-10-17T02:33:48;5.23;;;2.60;;
15818;SDS011;8010;53.986;12.106;2022-10-17T02:36:23;3.57;;;2.73;;
15818;SDS011;8010;53.986;12.106;2022-10-17T02:38:53;3.50;;;3.07;;
15818;SDS011;8010;53.986;12.106;2022-10-17T02:41:19;3.57;;;3.07;;
15818;SDS011;8010;53.986;12.106;2022-10-17T02:43:47;4.27;;;3.17;;
15818;SDS011;8010;53.986;12.106;2022-10-17T02:46:15;5.87;;;3.13;;
15818;SDS011;8010;53.986;12.106;2022-10-17T02:48:56;5.77;;;2.80;;
15818;SDS011;8010;53.986;12.106;2022-10-17T02:51:39;4.30;;;3.10;;
15818;SDS011;8010;53.986;12.106;2022-10-17T02:54:19;5.30;;;3.17;;
15818;SDS011;8010;53.986;12.106;2022-10-17T02:56:52;3.40;;;3.00;;
15818;SDS011;8010;53.986;12.106;2022-10-17T02:59:23;4.87;;;3.10;;
15818;SDS011;8010;53.986;12.106;2022-10-17T03:01:50;6.10;;;2.93;;
15818;SDS011;8010;53.986;12.106;2022-10-17T03:04:16;7.47;;;2.90;;
15818;SDS011;8010;53.986;12.106;2022-10-17T03:06:42;4.47;;;3.10;;
15818;SDS011;8010;53.986;12.106;2022-10-17T03:09:10;3.40;;;2.80;;
15818;SDS011;8010;53.986;12.106;2022-10-17T03:11:36;3.67;;;3.20;;
15818;SDS011;8010;53.986;12.106;2022-10-17T03:14:01;5.87;;;3.07;;
15818;SDS011;8010;53.986;12.106;2022-10-17T03:16:27;7.20;;;3.60;;
15818;SDS011;8010;53.986;12.106;2022-10-17T03:18:53;4.07;;;3.10;;
15818;SDS011;8010;53.986;12.106;2022-10-17T03:21:18;5.17;;;3.23;;
15818;SDS011;8010;53.986;12.106;2022-10-17T03:23:44;7.73;;;3.37;;
15818;SDS011;8010;53.986;12.106;2022-10-17T03:26:10;4.13;;;3.07;;
15818;SDS011;8010;53.986;12.106;2022-10-17T03:28:35;7.13;;;3.50;;
15818;SDS011;8010;53.986;12.106;2022-10-17T03:31:08;4.40;;;3.27;;
15818;SDS011;8010;53.986;12.106;2022-10-17T03:33:35;3.30;;;2.80;;
15818;SDS011;8010;53.986;12.106;2022-10-17T03:36:12;5.70;;;3.57;;
15818;SDS011;8010;53.986;12.106;2022-10-17T03:38:40;5.53;;;2.90;;
15818;SDS011;8010;53.986;12.106;2022-10-17T03:41:06;4.37;;;3.20;;
15818;SDS011;8010;53.986;12.106;2022-10-17T03:43:31;3.90;;;3.50;;
15818;SDS011;8010;53.986;12.106;2022-10-17T03:45:58;3.87;;;3.53;;
15818;SDS011;8010;53.986;12.106;2022-10-17T03:48:24;3.30;;;2.90;;
15818;SDS011;8010;53.986;12.106;2022-10-17T03:50:50;3.07;;;2.87;;
15818;SDS011;8010;53.986;12.106;2022-10-17T03:53:16;5.43;;;3.50;;
15818;SDS011;8010;53.986;12.106;2022-10-17T03:55:42;4.37;;;2.70;;
15818;SDS011;8010;53.986;12.106;2022-10-17T03:58:08;4.20;;;3.07;;
15818;SDS011;8010;53.986;12.106;2022-10-17T04:00:36;3.10;;;2.80;;
15818;SDS011;8010;53.986;12.106;2022-10-17T04:03:02;6.80;;;3.00;;
15818;SDS011;8010;53.986;12.106;2022-10-17T04:05:27;4.50;;;3.00;;
15818;SDS011;8010;53.986;12.106;2022-10-17T04:07:53;6.13;;;3.27;;
15818;SDS011;8010;53.986;12.106;2022-10-17T04:10:18;5.60;;;3.13;;
15818;SDS011;8010;53.986;12.106;2022-10-17T04:12:44;4.67;;;2.83;;
15818;SDS011;8010;53.986;12.106;2022-10-17T04:15:09;4.50;;;3.20;;
15818;SDS011;8010;53.986;12.106;2022-10-17T04:17:35;7.13;;;2.90;;
15818;SDS011;8010;53.986;12.106;2022-10-17T04:20:01;3.93;;;2.73;;
15818;SDS011;8010;53.986;12.106;2022-10-17T04:22:26;5.07;;;2.90;;
15818;SDS011;8010;53.986;12.106;2022-10-17T04:24:52;4.40;;;3.07;;
15818;SDS011;8010;53.986;12.106;2022-10-17T04:27:17;7.87;;;3.37;;
15818;SDS011;8010;53.986;12.106;2022-10-17T04:29:43;3.10;;;2.80;;
15818;SDS011;8010;53.986;12.106;2022-10-17T04:32:09;4.23;;;3.20;;
15818;SDS011;8010;53.986;12.106;2022-10-17T04:34:34;5.47;;;3.07;;
15818;SDS011;8010;53.986;12.106;2022-10-17T04:37:00;3.87;;;2.67;;
15818;SDS011;8010;53.986;12.106;2022-10-17T04:39:26;4.57;;;2.70;;
15818;SDS011;8010;53.986;12.106;2022-10-17T04:41:52;5.20;;;3.10;;
15818;SDS011;8010;53.986;12.106;2022-10-17T04:44:17;3.90;;;2.77;;
15818;SDS011;8010;53.986;12.106;2022-10-17T04:46:44;4.27;;;2.67;;
15818;SDS011;8010;53.986;12.106;2022-10-17T04:49:10;2.73;;;2.53;;
15818;SDS011;8010;53.986;12.106;2022-10-17T04:51:35;3.57;;;2.43;;
15818;SDS011;8010;53.986;12.106;2022-10-17T04:54:02;3.40;;;2.80;;
15818;SDS011;8010;53.986;12.106;2022-10-17T04:56:27;3.90;;;2.90;;
15818;SDS011;8010;53.986;12.106;2022-10-17T04:58:53;3.73;;;2.73;;
15818;SDS011;8010;53.986;12.106;2022-10-17T05:01:20;3.33;;;2.70;;
15818;SDS011;8010;53.986;12.106;2022-10-17T05:03:47;3.50;;;2.60;;
15818;SDS011;8010;53.986;12.106;2022-10-17T05:06:14;3.27;;;2.60;;
15818;SDS011;8010;53.986;12.106;2022-10-17T05:08:44;3.53;;;2.73;;
15818;SDS011;8010;53.986;12.106;2022-10-17T05:13:43;3.97;;;2.77;;
15818;SDS011;8010;53.986;12.106;2022-10-17T05:16:09;3.07;;;2.63;;
15818;SDS011;8010;53.986;12.106;2022-10-17T05:18:34;3.17;;;2.80;;
15818;SDS011;8010;53.986;12.106;2022-10-17T05:21:02;3.90;;;2.70;;
15818;SDS011;8010;53.986;12.106;2022-10-17T05:23:28;2.97;;;2.40;;
15818;SDS011;8010;53.986;12.106;2022-10-17T05:25:54;2.67;;;2.47;;
15818;SDS011;8010;53.986;12.106;2022-10-17T05:28:20;3.67;;;3.10;;
15818;SDS011;8010;53.986;12.106;2022-10-17T05:30:46;4.33;;;2.90;;
15818;SDS011;8010;53.986;12.106;2022-10-17T05:33:12;3.53;;;3.03;;
15818;SDS011;8010;53.986;12.106;2022-10-17T05:35:38;3.97;;;3.03;;
15818;SDS011;8010;53.986;12.106;2022-10-17T05:38:03;3.47;;;2.73;;
15818;SDS011;8010;53.986;12.106;2022-10-17T05:40:29;6.63;;;3.17;;
15818;SDS011;8010;53.986;12.106;2022-10-17T05:42:54;3.43;;;2.80;;
15818;SDS011;8010;53.986;12.106;2022-10-17T05:45:20;4.33;;;2.60;;
15818;SDS011;8010;53.986;12.106;2022-10-17T05:47:45;3.50;;;2.93;;
15818;SDS011;8010;53.986;12.106;2022-10-17T05:50:11;3.33;;;2.40;;
15818;SDS011;8010;53.986;12.106;2022-10-17T05:52:37;3.37;;;2.60;;
15818;SDS011;8010;53.986;12.106;2022-10-17T05:55:03;4.17;;;2.60;;
15818;SDS011;8010;53.986;12.106;2022-10-17T05:57:29;3.43;;;2.20;;
15818;SDS011;8010;53.986;12.106;2022-10-17T05:59:55;5.73;;;2.93;;
15818;SDS011;8010;53.986;12.106;2022-10-17T06:02:20;3.63;;;2.40;;
15818;SDS011;8010;53.986;12.106;2022-10-17T06:04:46;2.67;;;2.47;;
15818;SDS011;8010;53.986;12.106;2022-10-17T06:07:13;3.60;;;2.43;;
15818;SDS011;8010;53.986;12.106;2022-10-17T06:09:39;3.53;;;2.60;;
15818;SDS011;8010;53.986;12.106;2022-10-17T06:12:05;3.87;;;2.27;;
15818;SDS011;8010;53.986;12.106;2022-10-17T06:14:31;3.23;;;2.27;;
15818;SDS011;8010;53.986;12.106;2022-10-17T06:16:57;3.37;;;2.40;;
15818;SDS011;8010;53.986;12.106;2022-10-17T06:19:23;2.40;;;2.13;;
15818;SDS011;8010;53.986;12.106;2022-10-17T06:21:48;2.50;;;2.07;;
15818;SDS011;8010;53.986;12.106;2022-10-17T06:24:14;4.83;;;2.37;;
15818;SDS011;8010;53.986;12.106;2022-10-17T06:26:40;7.00;;;3.20;;
15818;SDS011;8010;53.986;12.106;2022-10-17T06:29:06;3.43;;;2.20;;
15818;SDS011;8010;53.986;12.106;2022-10-17T06:31:31;3.47;;;2.40;;
15818;SDS011;8010;53.986;12.106;2022-10-17T06:33:57;3.40;;;2.40;;
15818;SDS011;8010;53.986;12.106;2022-10-17T06:36:22;7.73;;;2.80;;
15818;SDS011;8010;53.986;12.106;2022-10-17T06:38:48;2.93;;;2.50;;
15818;SDS011;8010;53.986;12.106;2022-10-17T06:41:14;4.10;;;2.70;;
15818;SDS011;8010;53.986;12.106;2022-10-17T06:43:42;4.03;;;2.67;;
15818;SDS011;8010;53.986;12.106;2022-10-17T06:46:15;5.03;;;2.97;;
15818;SDS011;8010;53.986;12.106;2022-10-17T06:48:41;3.00;;;2.70;;
15818;SDS011;8010;53.986;12.106;2022-10-17T06:51:07;2.73;;;2.47;;
15818;SDS011;8010;53.986;12.106;2022-10-17T06:53:35;5.87;;;2.90;;
15818;SDS011;8010;53.986;12.106;2022-10-17T06:56:02;3.33;;;2.60;;
15818;SDS011;8010;53.986;12.106;2022-10-17T06:58:29;12.20;;;2.80;;
15818;SDS011;8010;53.986;12.106;2022-10-17T07:01:00;3.63;;;2.37;;
15818;SDS011;8010;53.986;12.106;2022-10-17T07:03:27;3.83;;;2.00;;
15818;SDS011;8010;53.986;12.106;2022-10-17T07:05:53;4.47;;;2.30;;
15818;SDS011;8010;53.986;12.106;2022-10-17T07:08:19;5.93;;;1.60;;
15818;SDS011;8010;53.986;12.106;2022-10-17T07:10:45;2.73;;;1.60;;
15818;SDS011;8010;53.986;12.106;2022-10-17T07:13:11;3.10;;;1.77;;
15818;SDS011;8010;53.986;12.106;2022-10-17T07:15:37;2.00;;;1.50;;
15818;SDS011;8010;53.986;12.106;2022-10-17T07:18:03;1.57;;;1.43;;
15818;SDS011;8010;53.986;12.106;2022-10-17T07:20:29;3.97;;;1.37;;
15818;SDS011;8010;53.986;12.106;2022-10-17T07:22:55;3.43;;;1.50;;
15818;SDS011;8010;53.986;12.106;2022-10-17T07:25:21;1.40;;;1.30;;
15818;SDS011;8010;53.986;12.106;2022-10-17T07:27:47;1.27;;;1.17;;
15818;SDS011;8010;53.986;12.106;2022-10-17T07:30:13;3.53;;;1.40;;
15818;SDS011;8010;53.986;12.106;2022-10-17T07:32:39;4.37;;;1.83;;
15818;SDS011;8010;53.986;12.106;2022-10-17T07:35:05;2.07;;;1.33;;
15818;SDS011;8010;53.986;12.106;2022-10-17T07:37:31;2.33;;;1.30;;
15818;SDS011;8010;53.986;12.106;2022-10-17T07:39:57;1.87;;;1.20;;
15818;SDS011;8010;53.986;12.106;2022-10-17T07:42:23;2.57;;;1.37;;
15818;SDS011;8010;53.986;12.106;2022-10-17T07:44:48;2.13;;;1.20;;
15818;SDS011;8010;53.986;12.106;2022-10-17T07:47:14;3.40;;;1.50;;
15818;SDS011;8010;53.986;12.106;2022-10-17T07:49:39;1.70;;;1.33;;
15818;SDS011;8010;53.986;12.106;2022-10-17T07:52:13;2.80;;;1.20;;
15818;SDS011;8010;53.986;12.106;2022-10-17T07:54:40;3.00;;;1.20;;
15818;SDS011;8010;53.986;12.106;2022-10-17T07:57:06;3.27;;;1.27;;
15818;SDS011;8010;53.986;12.106;2022-10-17T07:59:32;1.60;;;1.37;;
15818;SDS011;8010;53.986;12.106;2022-10-17T08:01:59;2.33;;;1.60;;
15818;SDS011;8010;53.986;12.106;2022-10-17T08:04:25;1.93;;;1.30;;
15818;SDS011;8010;53.986;12.106;2022-10-17T08:06:51;2.67;;;1.40;;
15818;SDS011;8010;53.986;12.106;2022-10-17T08:09:16;1.60;;;1.50;;
15818;SDS011;8010;53.986;12.106;2022-10-17T08:11:42;5.30;;;1.53;;
15818;SDS011;8010;53.986;12.106;2022-10-17T08:14:11;3.10;;;1.70;;
15818;SDS011;8010;53.986;12.106;2022-10-17T08:16:37;1.83;;;1.37;;
15818;SDS011;8010;53.986;12.106;2022-10-17T08:19:04;2.57;;;1.73;;
15818;SDS011;8010;53.986;12.106;2022-10-17T08:21:29;2.30;;;1.77;;
15818;SDS011;8010;53.986;12.106;2022-10-17T08:23:55;2.70;;;1.60;;
15818;SDS011;8010;53.986;12.106;2022-10-17T08:26:21;3.73;;;1.53;;
15818;SDS011;8010;53.986;12.106;2022-10-17T08:28:47;2.20;;;1.90;;
15818;SDS011;8010;53.986;12.106;2022-10-17T08:31:14;3.00;;;1.87;;
15818;SDS011;8010;53.986;12.106;2022-10-17T08:33:44;3.37;;;2.10;;
15818;SDS011;8010;53.986;12.106;2022-10-17T08:36:11;2.10;;;1.80;;
15818;SDS011;8010;53.986;12.106;2022-10-17T08:38:38;2.63;;;1.77;;
15818;SDS011;8010;53.986;12.106;2022-10-17T08:41:13;5.00;;;1.50;;
15818;SDS011;8010;53.986;12.106;2022-10-17T08:43:58;2.93;;;2.00;;
15818;SDS011;8010;53.986;12.106;2022-10-17T08:46:36;4.00;;;1.60;;
15818;SDS011;8010;53.986;12.106;2022-10-17T08:49:05;2.47;;;1.73;;
15818;SDS011;8010;53.986;12.106;2022-10-17T08:51:37;3.43;;;1.70;;
15818;SDS011;8010;53.986;12.106;2022-10-17T08:54:37;2.40;;;1.73;;
15818;SDS011;8010;53.986;12.106;2022-10-17T08:57:07;2.70;;;1.60;;
15818;SDS011;8010;53.986;12.106;2022-10-17T08:59:37;1.60;;;1.40;;
15818;SDS011;8010;53.986;12.106;2022-10-17T09:07:49;1.80;;;1.60;;
15818;SDS011;8010;53.986;12.106;2022-10-17T09:10:42;2.70;;;1.60;;
15818;SDS011;8010;53.986;12.106;2022-10-17T09:16:33;3.57;;;1.70;;
15818;SDS011;8010;53.986;12.106;2022-10-17T09:19:34;2.17;;;1.70;;
15818;SDS011;8010;53.986;12.106;2022-10-17T09:22:14;2.20;;;1.50;;
15818;SDS011;8010;53.986;12.106;2022-10-17T09:24:47;3.63;;;1.40;;
15818;SDS011;8010;53.986;12.106;2022-10-17T09:27:42;4.13;;;1.90;;
15818;SDS011;8010;53.986;12.106;2022-10-17T09:30:29;2.93;;;1.80;;
15818;SDS011;8010;53.986;12.106;2022-10-17T09:32:57;3.57;;;1.70;;
15818;SDS011;8010;53.986;12.106;2022-10-17T09:35:22;2.23;;;1.73;;
15818;SDS011;8010;53.986;12.106;2022-10-17T09:37:49;3.20;;;1.63;;
15818;SDS011;8010;53.986;12.106;2022-10-17T09:40:18;4.47;;;1.77;;
15818;SDS011;8010;53.986;12.106;2022-10-17T09:42:48;2.10;;;1.90;;
15818;SDS011;8010;53.986;12.106;2022-10-17T09:45:23;2.23;;;2.00;;
15818;SDS011;8010;53.986;12.106;2022-10-17T09:48:01;2.57;;;1.90;;
15818;SDS011;8010;53.986;12.106;2022-10-17T09:50:53;3.53;;;2.20;;
15818;SDS011;8010;53.986;12.106;2022-10-17T09:55:49;1.93;;;1.67;;
15818;SDS011;8010;53.986;12.106;2022-10-17T09:58:20;4.63;;;2.50;;
15818;SDS011;8010;53.986;12.106;2022-10-17T10:00:47;3.50;;;2.40;;
15818;SDS011;8010;53.986;12.106;2022-10-17T10:03:19;3.77;;;2.27;;
15818;SDS011;8010;53.986;12.106;2022-10-17T10:08:46;1.97;;;1.77;;
15818;SDS011;8010;53.986;12.106;2022-10-17T10:11:14;2.20;;;2.00;;
15818;SDS011;8010;53.986;12.106;2022-10-17T10:13:41;3.87;;;2.37;;
15818;SDS011;8010;53.986;12.106;2022-10-17T10:16:19;5.73;;;2.20;;
15818;SDS011;8010;53.986;12.106;2022-10-17T10:18:54;4.40;;;1.93;;
15818;SDS011;8010;53.986;12.106;2022-10-17T10:21:23;4.53;;;2.20;;
15818;SDS011;8010;53.986;12.106;2022-10-17T10:26:53;2.93;;;2.10;;
15818;SDS011;8010;53.986;12.106;2022-10-17T10:29:35;2.23;;;1.80;;
15818;SDS011;8010;53.986;12.106;2022-10-17T10:32:11;4.03;;;1.93;;
15818;SDS011;8010;53.986;12.106;2022-10-17T10:34:48;3.33;;;2.20;;
15818;SDS011;8010;53.986;12.106;2022-10-17T10:37:18;3.40;;;1.97;;
15818;SDS011;8010;53.986;12.106;2022-10-17T10:42:21;3.37;;;2.20;;
15818;SDS011;8010;53.986;12.106;2022-10-17T10:45:18;2.10;;;1.90;;
15818;SDS011;8010;53.986;12.106;2022-10-17T10:51:00;3.30;;;1.73;;
15818;SDS011;8010;53.986;12.106;2022-10-17T10:59:50;3.67;;;1.90;;
15818;SDS011;8010;53.986;12.106;2022-10-17T11:11:29;2.33;;;2.13;;
15818;SDS011;8010;53.986;12.106;2022-10-17T11:14:09;3.80;;;1.97;;
15818;SDS011;8010;53.986;12.106;2022-10-17T11:22:14;3.87;;;2.70;;
15818;SDS011;8010;53.986;12.106;2022-10-17T11:24:53;4.63;;;2.97;;
15818;SDS011;8010;53.986;12.106;2022-10-17T11:27:25;3.83;;;2.90;;
15818;SDS011;8010;53.986;12.106;2022-10-17T11:29:53;3.63;;;2.50;;
15818;SDS011;8010;53.986;12.106;2022-10-17T11:34:52;3.17;;;2.30;;
15818;SDS011;8010;53.986;12.106;2022-10-17T11:37:24;2.83;;;2.00;;
15818;SDS011;8010;53.986;12.106;2022-10-17T11:40:02;3.27;;;2.10;;
15818;SDS011;8010;53.986;12.106;2022-10-17T11:42:41;3.13;;;2.10;;
15818;SDS011;8010;53.986;12.106;2022-10-17T11:45:25;4.73;;;2.93;;
15818;SDS011;8010;53.986;12.106;2022-10-17T11:48:00;6.17;;;2.60;;
15818;SDS011;8010;53.986;12.106;2022-10-17T11:50:31;2.90;;;2.40;;
15818;SDS011;8010;53.986;12.106;2022-10-17T11:55:28;2.60;;;2.07;;
15818;SDS011;8010;53.986;12.106;2022-10-17T12:00:58;2.67;;;2.20;;
15818;SDS011;8010;53.986;12.106;2022-10-17T12:06:46;4.70;;;2.63;;
15818;SDS011;8010;53.986;12.106;2022-10-17T12:09:19;3.83;;;1.93;;
15818;SDS011;8010;53.986;12.106;2022-10-17T12:12:10;3.20;;;2.17;;
15818;SDS011;8010;53.986;12.106;2022-10-17T12:14:48;3.47;;;2.10;;
15818;SDS011;8010;53.986;12.106;2022-10-17T12:22:54;5.63;;;2.20;;
15818;SDS011;8010;53.986;12.106;2022-10-17T12:25:30;3.07;;;2.47;;
15818;SDS011;8010;53.986;12.106;2022-10-17T12:30:48;3.53;;;2.87;;
15818;SDS011;8010;53.986;12.106;2022-10-17T12:33:20;3.70;;;2.53;;
15818;SDS011;8010;53.986;12.106;2022-10-17T12:35:51;2.60;;;2.00;;
15818;SDS011;8010;53.986;12.106;2022-10-17T12:46:44;3.63;;;2.20;;
15818;SDS011;8010;53.986;12.106;2022-10-17T12:52:16;3.13;;;2.00;;
15818;SDS011;8010;53.986;12.106;2022-10-17T12:55:15;4.70;;;2.53;;
15818;SDS011;8010;53.986;12.106;2022-10-17T13:00:42;2.73;;;2.40;;
15818;SDS011;8010;53.986;12.106;2022-10-17T13:08:43;5.00;;;2.60;;
15818;SDS011;8010;53.986;12.106;2022-10-17T13:11:13;2.40;;;2.20;;
15818;SDS011;8010;53.986;12.106;2022-10-17T13:13:46;2.80;;;2.07;;
15818;SDS011;8010;53.986;12.106;2022-10-17T13:16:26;4.73;;;2.20;;
15818;SDS011;8010;53.986;12.106;2022-10-17T13:18:52;2.33;;;2.10;;
15818;SDS011;8010;53.986;12.106;2022-10-17T13:21:18;2.80;;;2.03;;
15818;SDS011;8010;53.986;12.106;2022-10-17T13:23:44;2.73;;;2.00;;
15818;SDS011;8010;53.986;12.106;2022-10-17T13:26:17;2.47;;;2.20;;
15818;SDS011;8010;53.986;12.106;2022-10-17T13:28:59;4.83;;;2.20;;
15818;SDS011;8010;53.986;12.106;2022-10-17T13:31:36;3.87;;;1.93;;
15818;SDS011;8010;53.986;12.106;2022-10-17T13:34:04;3.23;;;2.30;;
15818;SDS011;8010;53.986;12.106;2022-10-17T13:36:38;3.10;;;2.20;;
15818;SDS011;8010;53.986;12.106;2022-10-17T13:39:07;2.80;;;2.00;;
15818;SDS011;8010;53.986;12.106;2022-10-17T13:41:34;5.40;;;2.17;;
15818;SDS011;8010;53.986;12.106;2022-10-17T13:44:00;2.87;;;2.03;;
15818;SDS011;8010;53.986;12.106;2022-10-17T13:46:28;3.23;;;2.17;;
15818;SDS011;8010;53.986;12.106;2022-10-17T13:48:56;3.90;;;2.57;;
15818;SDS011;8010;53.986;12.106;2022-10-17T13:51:24;2.83;;;2.33;;
15818;SDS011;8010;53.986;12.106;2022-10-17T13:53:51;5.37;;;2.70;;
15818;SDS011;8010;53.986;12.106;2022-10-17T13:58:54;3.70;;;2.90;;
15818;SDS011;8010;53.986;12.106;2022-10-17T14:01:23;4.43;;;2.30;;
15818;SDS011;8010;53.986;12.106;2022-10-17T14:03:51;4.43;;;2.67;;
15818;SDS011;8010;53.986;12.106;2022-10-17T14:06:21;5.47;;;2.77;;
15818;SDS011;8010;53.986;12.106;2022-10-17T14:08:52;3.13;;;2.27;;
15818;SDS011;8010;53.986;12.106;2022-10-17T14:11:26;2.83;;;2.60;;
15818;SDS011;8010;53.986;12.106;2022-10-17T14:13:56;3.97;;;2.30;;
15818;SDS011;8010;53.986;12.106;2022-10-17T14:16:24;7.13;;;2.30;;
15818;SDS011;8010;53.986;12.106;2022-10-17T14:18:51;5.00;;;2.60;;
15818;SDS011;8010;53.986;12.106;2022-10-17T14:21:21;2.77;;;2.47;;
15818;SDS011;8010;53.986;12.106;2022-10-17T14:23:49;4.57;;;2.00;;
15818;SDS011;8010;53.986;12.106;2022-10-17T14:26:22;2.73;;;2.33;;
15818;SDS011;8010;53.986;12.106;2022-10-17T14:28:49;4.60;;;2.50;;
15818;SDS011;8010;53.986;12.106;2022-10-17T14:31:31;5.27;;;2.40;;
15818;SDS011;8010;53.986;12.106;2022-10-17T14:33:59;3.70;;;2.23;;
15818;SDS011;8010;53.986;12.106;2022-10-17T14:36:33;3.03;;;2.27;;
15818;SDS011;8010;53.986;12.106;2022-10-17T14:39:01;4.27;;;2.50;;
15818;SDS011;8010;53.986;12.106;2022-10-17T14:41:30;2.70;;;2.50;;
15818;SDS011;8010;53.986;12.106;2022-10-17T14:44:02;3.00;;;2.43;;
15818;SDS011;8010;53.986;12.106;2022-10-17T14:46:31;4.30;;;2.40;;
15818;SDS011;8010;53.986;12.106;2022-10-17T14:49:03;3.00;;;2.47;;
15818;SDS011;8010;53.986;12.106;2022-10-17T14:51:31;3.23;;;2.30;;
15818;SDS011;8010;53.986;12.106;2022-10-17T14:56:49;5.53;;;2.73;;
15818;SDS011;8010;53.986;12.106;2022-10-17T14:59:17;3.33;;;2.60;;
15818;SDS011;8010;53.986;12.106;2022-10-17T15:01:46;3.23;;;2.80;;
15818;SDS011;8010;53.986;12.106;2022-10-17T15:04:13;2.87;;;2.50;;
15818;SDS011;8010;53.986;12.106;2022-10-17T15:06:39;3.53;;;2.23;;
15818;SDS011;8010;53.986;12.106;2022-10-17T15:09:05;6.13;;;3.00;;
15818;SDS011;8010;53.986;12.106;2022-10-17T15:11:30;5.90;;;2.67;;
15818;SDS011;8010;53.986;12.106;2022-10-17T15:13:56;4.10;;;2.80;;
15818;SDS011;8010;53.986;12.106;2022-10-17T15:16:25;4.20;;;2.90;;
15818;SDS011;8010;53.986;12.106;2022-10-17T15:18:54;4.23;;;2.93;;
15818;SDS011;8010;53.986;12.106;2022-10-17T15:21:20;3.10;;;2.70;;
15818;SDS011;8010;53.986;12.106;2022-10-17T15:23:48;4.83;;;2.57;;
15818;SDS011;8010;53.986;12.106;2022-10-17T15:26:16;4.03;;;2.80;;
15818;SDS011;8010;53.986;12.106;2022-10-17T15:28:44;3.20;;;2.70;;
15818;SDS011;8010;53.986;12.106;2022-10-17T15:31:11;4.17;;;2.50;;
15818;SDS011;8010;53.986;12.106;2022-10-17T15:33:40;4.13;;;2.70;;
15818;SDS011;8010;53.986;12.106;2022-10-17T15:36:17;5.43;;;3.03;;
15818;SDS011;8010;53.986;12.106;2022-10-17T15:39:02;6.67;;;2.97;;
15818;SDS011;8010;53.986;12.106;2022-10-17T15:41:29;5.77;;;3.50;;
15818;SDS011;8010;53.986;12.106;2022-10-17T15:43:55;6.37;;;3.20;;
15818;SDS011;8010;53.986;12.106;2022-10-17T15:46:21;5.07;;;2.80;;
15818;SDS011;8010;53.986;12.106;2022-10-17T15:48:52;3.53;;;2.93;;
15818;SDS011;8010;53.986;12.106;2022-10-17T15:51:19;4.33;;;2.93;;
15818;SDS011;8010;53.986;12.106;2022-10-17T15:53:45;5.83;;;3.10;;
15818;SDS011;8010;53.986;12.106;2022-10-17T15:56:30;3.90;;;2.93;;
15818;SDS011;8010;53.986;12.106;2022-10-17T15:59:00;3.67;;;3.20;;
15818;SDS011;8010;53.986;12.106;2022-10-17T16:01:28;4.83;;;3.00;;
15818;SDS011;8010;53.986;12.106;2022-10-17T16:03:55;5.20;;;3.37;;
15818;SDS011;8010;53.986;12.106;2022-10-17T16:06:22;3.73;;;3.33;;
15818;SDS011;8010;53.986;12.106;2022-10-17T16:08:48;6.50;;;3.47;;
15818;SDS011;8010;53.986;12.106;2022-10-17T16:11:25;5.40;;;3.77;;
15818;SDS011;8010;53.986;12.106;2022-10-17T16:14:01;8.07;;;3.73;;
15818;SDS011;8010;53.986;12.106;2022-10-17T16:16:28;5.30;;;3.40;;
15818;SDS011;8010;53.986;12.106;2022-10-17T16:18:54;3.50;;;3.13;;
15818;SDS011;8010;53.986;12.106;2022-10-17T16:21:21;7.67;;;3.43;;
15818;SDS011;8010;53.986;12.106;2022-10-17T16:23:49;6.50;;;3.70;;
15818;SDS011;8010;53.986;12.106;2022-10-17T16:26:16;6.50;;;3.40;;
15818;SDS011;8010;53.986;12.106;2022-10-17T16:28:42;4.17;;;3.30;;
15818;SDS011;8010;53.986;12.106;2022-10-17T16:31:14;4.90;;;3.73;;
15818;SDS011;8010;53.986;12.106;2022-10-17T16:33:50;9.33;;;4.10;;
15818;SDS011;8010;53.986;12.106;2022-10-17T16:36:17;5.30;;;3.53;;
15818;SDS011;8010;53.986;12.106;2022-10-17T16:38:44;3.97;;;3.53;;
15818;SDS011;8010;53.986;12.106;2022-10-17T16:41:18;5.77;;;3.93;;
15818;SDS011;8010;53.986;12.106;2022-10-17T16:43:46;5.50;;;4.07;;
15818;SDS011;8010;53.986;12.106;2022-10-17T16:46:12;4.23;;;3.17;;
15818;SDS011;8010;53.986;12.106;2022-10-17T16:48:38;4.27;;;3.53;;
15818;SDS011;8010;53.986;12.106;2022-10-17T16:51:04;4.43;;;3.70;;
15818;SDS011;8010;53.986;12.106;2022-10-17T16:53:29;6.97;;;4.10;;
15818;SDS011;8010;53.986;12.106;2022-10-17T16:55:59;5.07;;;3.53;;
15818;SDS011;8010;53.986;12.106;2022-10-17T16:58:25;7.17;;;3.90;;